Time,TemperatureF,DewpointF,PressureIn,WindDirection,WindDirectionDegrees,WindSpeedMPH,WindSpeedGustMPH,Humidity,HourlyPrecipIn,Conditions,Clouds,dailyrainin,SoftwareType,DateUTC
2013-06-07 00:01:00,59.6,57.6,29.94,SSE,165,0.0,0.0,93,0.03,CLR,CLR,0.00,WeatherDisplay:10.36,2013-06-07 04:01:00,
2013-06-07 00:02:00,59.6,57.6,29.94,SSE,165,0.0,0.0,93,0.03,CLR,CLR,0.00,WeatherDisplay:10.36,2013-06-07 04:02:00,
2013-06-07 00:03:00,59.6,57.6,29.93,SSE,165,0.0,0.0,93,0.04,CLR,CLR,0.01,WeatherDisplay:10.36,2013-06-07 04:03:00,
2013-06-07 00:08:00,59.5,57.5,29.93,SSE,165,0.0,0.0,93,0.04,,,0.01,WeatherDisplay:10.36,2013-06-07 04:08:00,
2013-06-07 00:13:00,59.5,57.5,29.93,SSE,165,0.0,0.0,93,0.03,,,0.01,WeatherDisplay:10.36,2013-06-07 04:13:00,
2013-06-07 00:18:00,59.5,57.5,29.93,SSE,165,0.0,0.0,93,0.03,CLR,CLR,0.01,WeatherDisplay:10.36,2013-06-07 04:18:00,
2013-06-07 00:23:00,59.5,57.5,29.93,SSE,165,0.0,0.0,93,0.03,CLR,CLR,0.01,WeatherDisplay:10.36,2013-06-07 04:23:00,
2013-06-07 00:28:00,59.5,57.8,29.93,SSE,165,0.0,0.0,94,0.02,CLR,CLR,0.01,WeatherDisplay:10.36,2013-06-07 04:28:00,
2013-06-07 00:33:00,59.5,57.8,29.93,SSE,165,0.0,0.0,94,0.02,CLR,CLR,0.01,WeatherDisplay:10.36,2013-06-07 04:33:00,
2013-06-07 00:39:00,59.5,57.8,29.93,SSE,165,0.0,0.0,94,0.02,CLR,CLR,0.01,WeatherDisplay:10.36,2013-06-07 04:39:00,
2013-06-07 00:44:00,59.5,57.8,29.94,SSE,165,0.0,0.0,94,0.03,RA,RA,0.02,WeatherDisplay:10.36,2013-06-07 04:44:00,
2013-06-07 00:49:00,59.5,57.8,29.93,SSE,165,0.0,0.0,94,0.03,RA,RA,0.03,WeatherDisplay:10.36,2013-06-07 04:49:00,
2013-06-07 00:54:00,59.5,57.8,29.92,SSE,165,0.0,0.0,94,0.03,RA,RA,0.03,WeatherDisplay:10.36,2013-06-07 04:54:00,
2013-06-07 00:59:00,59.5,57.8,29.92,SSE,165,0.0,0.0,94,0.03,,,0.03,WeatherDisplay:10.36,2013-06-07 04:59:00,
2013-06-07 01:04:00,59.5,57.8,29.92,SSE,165,0.0,0.0,94,0.02,CLR,CLR,0.03,WeatherDisplay:10.36,2013-06-07 05:04:00,
2013-06-07 01:10:00,59.6,57.9,29.92,SSE,165,0.0,0.0,94,0.02,CLR,CLR,0.03,WeatherDisplay:10.36,2013-06-07 05:10:00,
2013-06-07 01:15:00,59.6,57.9,29.92,SSE,165,0.0,0.0,94,0.02,CLR,CLR,0.03,WeatherDisplay:10.36,2013-06-07 05:15:00,
2013-06-07 01:20:00,59.6,57.9,29.92,SSE,165,0.0,0.0,94,0.00,,,0.03,WeatherDisplay:10.36,2013-06-07 05:20:00,
2013-06-07 01:25:00,59.5,57.8,29.91,SSE,165,0.0,0.0,94,0.03,RA,RA,0.04,WeatherDisplay:10.36,2013-06-07 05:25:00,
2013-06-07 01:30:00,59.5,57.8,29.91,SSE,165,0.0,0.0,94,0.04,RA,RA,0.05,WeatherDisplay:10.36,2013-06-07 05:30:00,
2013-06-07 01:35:00,59.6,57.9,29.91,SSE,165,0.0,0.0,94,0.04,RA,RA,0.05,WeatherDisplay:10.36,2013-06-07 05:35:00,
2013-06-07 01:41:00,59.6,58.2,29.91,SSE,165,0.0,0.0,95,0.03,,,0.05,WeatherDisplay:10.36,2013-06-07 05:41:00,
2013-06-07 01:46:00,59.6,58.2,29.91,SSE,165,0.0,0.0,95,0.04,RA,RA,0.06,WeatherDisplay:10.36,2013-06-07 05:46:00,
2013-06-07 01:51:00,59.6,58.2,29.90,SSE,165,0.0,0.0,95,0.03,RA,RA,0.06,WeatherDisplay:10.36,2013-06-07 05:51:00,
2013-06-07 01:56:00,59.8,58.4,29.90,SSE,165,0.0,0.0,95,0.04,RA,RA,0.07,WeatherDisplay:10.36,2013-06-07 05:56:00,
2013-06-07 02:01:00,59.8,58.4,29.91,SSE,165,0.0,0.0,95,0.04,RA,RA,0.07,WeatherDisplay:10.36,2013-06-07 06:01:00,
2013-06-07 02:06:00,59.6,58.2,29.90,SSE,165,0.0,0.0,95,0.04,,,0.07,WeatherDisplay:10.36,2013-06-07 06:06:00,
2013-06-07 02:11:00,59.8,58.4,29.90,SSE,165,0.0,0.0,95,0.04,CLR,CLR,0.07,WeatherDisplay:10.36,2013-06-07 06:11:00,
2013-06-07 02:16:00,59.8,58.4,29.89,SSE,165,0.0,0.0,95,0.05,RA,RA,0.08,WeatherDisplay:10.36,2013-06-07 06:16:00,
2013-06-07 02:22:00,59.8,58.4,29.90,SSE,165,0.0,0.0,95,0.05,RA,RA,0.08,WeatherDisplay:10.36,2013-06-07 06:22:00,
2013-06-07 02:27:00,59.8,58.4,29.89,SSE,165,0.0,0.0,95,0.04,,,0.08,WeatherDisplay:10.36,2013-06-07 06:27:00,
2013-06-07 02:32:00,59.6,58.2,29.90,SSE,165,0.0,0.0,95,0.04,RA,RA,0.09,WeatherDisplay:10.36,2013-06-07 06:32:00,
2013-06-07 02:37:00,59.6,58.2,29.91,SSE,165,0.0,0.0,95,0.04,RA,RA,0.09,WeatherDisplay:10.36,2013-06-07 06:37:00,
2013-06-07 02:42:00,59.6,58.2,29.90,SSE,165,0.0,0.0,95,0.04,CLR,CLR,0.09,WeatherDisplay:10.36,2013-06-07 06:42:00,
2013-06-07 02:47:00,59.6,58.2,29.90,SSE,165,0.0,0.0,95,0.04,RA,RA,0.10,WeatherDisplay:10.36,2013-06-07 06:47:00,
2013-06-07 02:52:00,59.6,58.2,29.90,SSE,165,0.0,0.0,95,0.05,RA,RA,0.11,WeatherDisplay:10.36,2013-06-07 06:52:00,
2013-06-07 02:57:00,59.8,58.4,29.90,SSE,165,0.0,0.0,95,0.04,RA,RA,0.11,WeatherDisplay:10.36,2013-06-07 06:57:00,
2013-06-07 03:02:00,59.8,58.4,29.90,SSE,165,0.0,0.0,95,0.05,RA,RA,0.12,WeatherDisplay:10.36,2013-06-07 07:02:00,
2013-06-07 03:07:00,59.8,58.4,29.89,SSE,165,0.0,0.0,95,0.05,RA,RA,0.12,WeatherDisplay:10.36,2013-06-07 07:07:00,
2013-06-07 03:12:00,59.6,58.2,29.89,SSE,165,0.0,0.0,95,0.06,RA,RA,0.13,WeatherDisplay:10.36,2013-06-07 07:12:00,
2013-06-07 03:18:00,59.6,58.2,29.88,SSE,165,0.0,0.0,95,0.05,RA,RA,0.14,WeatherDisplay:10.36,2013-06-07 07:18:00,
2013-06-07 03:23:00,59.5,58.1,29.88,SSE,165,0.0,0.0,95,0.06,RA,RA,0.15,WeatherDisplay:10.36,2013-06-07 07:23:00,
2013-06-07 03:28:00,59.5,58.1,29.88,SSE,165,0.0,0.0,95,0.07,RA,RA,0.15,WeatherDisplay:10.36,2013-06-07 07:28:00,
2013-06-07 03:33:00,59.3,57.9,29.87,SSE,165,0.0,0.0,95,0.06,RA,RA,0.15,WeatherDisplay:10.36,2013-06-07 07:33:00,
2013-06-07 03:38:00,59.3,57.9,29.87,SSE,165,0.0,0.0,95,0.06,CLR,CLR,0.15,WeatherDisplay:10.36,2013-06-07 07:38:00,
2013-06-07 03:43:00,59.3,57.9,29.87,SSE,165,0.0,0.0,95,0.06,CLR,CLR,0.15,WeatherDisplay:10.36,2013-06-07 07:43:00,
2013-06-07 03:48:00,59.3,57.9,29.87,SSE,165,0.0,0.0,95,0.05,CLR,CLR,0.15,WeatherDisplay:10.36,2013-06-07 07:48:00,
2013-06-07 03:53:00,59.3,57.9,29.87,SSE,165,0.0,0.0,95,0.04,CLR,CLR,0.15,WeatherDisplay:10.36,2013-06-07 07:53:00,
2013-06-07 03:59:00,59.3,57.9,29.87,SSE,165,0.0,0.0,95,0.05,RA,RA,0.16,WeatherDisplay:10.36,2013-06-07 07:59:00,
2013-06-07 04:04:00,59.3,57.9,29.87,SSE,165,0.0,0.0,95,0.04,RA,RA,0.16,WeatherDisplay:10.36,2013-06-07 08:04:00,
2013-06-07 04:09:00,59.5,58.1,29.86,SSE,165,0.0,0.0,95,0.04,RA,RA,0.17,WeatherDisplay:10.36,2013-06-07 08:09:00,
2013-06-07 04:14:00,59.5,58.1,29.86,SSE,165,0.0,0.0,95,0.04,RA,RA,0.17,WeatherDisplay:10.36,2013-06-07 08:14:00,
2013-06-07 04:20:00,59.5,58.1,29.86,SSE,165,0.0,0.0,95,0.03,,,0.17,WeatherDisplay:10.36,2013-06-07 08:20:00,
2013-06-07 04:25:00,59.5,58.1,29.86,SSE,165,0.0,0.0,95,0.01,RA,RA,0.18,WeatherDisplay:10.36,2013-06-07 08:25:00,
2013-06-07 04:30:00,59.5,58.1,29.86,SSE,165,0.0,0.0,95,0.00,RA,RA,0.19,WeatherDisplay:10.36,2013-06-07 08:30:00,
2013-06-07 04:35:00,59.5,58.1,29.86,SSE,165,0.0,0.0,95,0.06,RA,RA,0.21,WeatherDisplay:10.36,2013-06-07 08:35:00,
2013-06-07 04:40:00,59.5,58.1,29.86,SSE,165,0.0,0.0,95,0.08,RA,RA,0.23,WeatherDisplay:10.36,2013-06-07 08:40:00,
2013-06-07 04:45:00,59.5,58.1,29.86,SSE,165,0.0,0.0,95,0.09,RA,RA,0.25,WeatherDisplay:10.36,2013-06-07 08:45:00,
2013-06-07 04:51:00,59.5,58.4,29.85,SSE,165,0.0,0.0,96,0.12,RA,RA,0.27,WeatherDisplay:10.36,2013-06-07 08:51:00,
2013-06-07 04:56:00,59.6,58.5,29.86,SSE,165,0.0,0.0,96,0.14,RA,RA,0.29,WeatherDisplay:10.36,2013-06-07 08:56:00,
2013-06-07 05:01:00,59.6,58.5,29.86,SSE,165,0.0,0.0,96,0.14,RA,RA,0.31,WeatherDisplay:10.36,2013-06-07 09:01:00,
2013-06-07 05:06:00,59.6,58.5,29.86,SSE,165,0.0,0.0,96,0.16,RA,RA,0.32,WeatherDisplay:10.36,2013-06-07 09:06:00,
2013-06-07 05:11:00,59.8,58.7,29.86,SSE,165,0.0,0.0,96,0.17,RA,RA,0.34,WeatherDisplay:10.36,2013-06-07 09:11:00,
2013-06-07 05:16:00,59.8,58.7,29.85,SSE,165,0.0,0.0,96,0.18,RA,RA,0.36,WeatherDisplay:10.36,2013-06-07 09:16:00,
2013-06-07 05:21:00,59.8,58.7,29.85,SSE,165,0.0,0.0,96,0.20,RA,RA,0.37,WeatherDisplay:10.36,2013-06-07 09:21:00,
2013-06-07 05:26:00,59.8,58.7,29.85,SSE,165,0.0,0.0,96,0.21,RA,RA,0.39,WeatherDisplay:10.36,2013-06-07 09:26:00,
2013-06-07 05:31:00,59.8,58.7,29.85,SSE,165,0.0,0.0,96,0.22,RA,RA,0.41,WeatherDisplay:10.36,2013-06-07 09:31:00,
2013-06-07 05:36:00,59.9,58.8,29.85,SSE,165,0.0,0.0,96,0.21,RA,RA,0.42,WeatherDisplay:10.36,2013-06-07 09:36:00,
2013-06-07 05:42:00,59.9,58.8,29.85,SSE,165,0.0,0.0,96,0.20,RA,RA,0.43,WeatherDisplay:10.36,2013-06-07 09:42:00,
2013-06-07 05:47:00,59.9,58.8,29.85,SSE,165,0.0,0.0,96,0.19,RA,RA,0.44,WeatherDisplay:10.36,2013-06-07 09:47:00,
2013-06-07 05:52:00,59.9,58.8,29.85,SSE,165,0.0,0.0,96,0.18,RA,RA,0.46,WeatherDisplay:10.36,2013-06-07 09:52:00,
2013-06-07 05:57:00,60.1,59.0,29.85,SSE,166,0.0,0.0,96,0.17,RA,RA,0.47,WeatherDisplay:10.36,2013-06-07 09:57:00,
2013-06-07 06:02:00,60.1,59.0,29.85,SSE,165,0.0,0.0,96,0.18,RA,RA,0.49,WeatherDisplay:10.36,2013-06-07 10:02:00,
2013-06-07 06:07:00,60.1,59.0,29.85,SSE,165,0.0,0.0,96,0.18,RA,RA,0.50,WeatherDisplay:10.36,2013-06-07 10:07:00,
2013-06-07 06:12:00,60.1,59.0,29.85,SSE,165,0.0,0.0,96,0.18,RA,RA,0.52,WeatherDisplay:10.36,2013-06-07 10:12:00,
2013-06-07 06:17:00,60.1,59.0,29.85,SSE,165,0.0,0.0,96,0.18,RA,RA,0.53,WeatherDisplay:10.36,2013-06-07 10:17:00,
2013-06-07 06:22:00,60.1,59.0,29.85,SSE,166,0.0,0.0,96,0.17,RA,RA,0.54,WeatherDisplay:10.36,2013-06-07 10:22:00,
2013-06-07 06:27:00,60.1,59.0,29.84,SSE,165,0.0,0.0,96,0.16,RA,RA,0.55,WeatherDisplay:10.36,2013-06-07 10:27:00,
2013-06-07 06:32:00,60.1,59.0,29.84,SSE,165,0.0,0.0,96,0.14,RA,RA,0.55,WeatherDisplay:10.36,2013-06-07 10:32:00,
2013-06-07 06:38:00,59.9,58.8,29.84,SSW,200,0.0,0.0,96,0.14,RA,RA,0.56,WeatherDisplay:10.36,2013-06-07 10:38:00,
2013-06-07 06:43:00,59.9,58.8,29.84,SSW,200,0.0,0.0,96,0.14,RA,RA,0.57,WeatherDisplay:10.36,2013-06-07 10:43:00,
2013-06-07 06:48:00,59.8,58.7,29.84,SSW,200,0.0,0.0,96,0.14,RA,RA,0.58,WeatherDisplay:10.36,2013-06-07 10:48:00,
2013-06-07 06:53:00,59.8,58.7,29.84,SSW,200,1.0,1.0,96,0.14,RA,RA,0.59,WeatherDisplay:10.36,2013-06-07 10:53:00,
2013-06-07 06:58:00,59.6,58.5,29.84,SSW,200,0.0,0.0,96,0.13,RA,RA,0.60,WeatherDisplay:10.36,2013-06-07 10:58:00,
2013-06-07 07:03:00,59.5,58.4,29.84,SSE,158,0.0,0.0,96,0.12,RA,RA,0.61,WeatherDisplay:10.36,2013-06-07 11:03:00,
2013-06-07 07:08:00,59.3,58.2,29.84,SSE,158,1.2,0.0,96,0.12,RA,RA,0.63,WeatherDisplay:10.36,2013-06-07 11:08:00,
2013-06-07 07:13:00,59.3,58.2,29.84,SSE,158,0.0,0.0,96,0.12,RA,RA,0.64,WeatherDisplay:10.36,2013-06-07 11:13:00,
2013-06-07 07:18:00,59.2,58.1,29.84,SSE,158,0.0,0.0,96,0.12,RA,RA,0.65,WeatherDisplay:10.36,2013-06-07 11:18:00,
2013-06-07 07:23:00,59.2,58.1,29.84,SSE,158,0.0,0.0,96,0.12,RA,RA,0.66,WeatherDisplay:10.36,2013-06-07 11:23:00,
2013-06-07 07:28:00,59.2,58.1,29.84,SSE,158,1.0,1.0,96,0.11,RA,RA,0.66,WeatherDisplay:10.36,2013-06-07 11:28:00,
2013-06-07 07:33:00,59.0,57.9,29.84,ENE,60,0.0,0.0,96,0.11,,,0.66,WeatherDisplay:10.36,2013-06-07 11:33:00,
2013-06-07 07:38:00,59.0,57.9,29.84,ENE,60,0.0,0.0,96,0.11,RA,RA,0.67,WeatherDisplay:10.36,2013-06-07 11:38:00,
2013-06-07 07:43:00,59.2,58.1,29.84,ENE,60,0.0,0.0,96,0.10,RA,RA,0.67,WeatherDisplay:10.36,2013-06-07 11:43:00,
2013-06-07 07:48:00,59.0,57.9,29.84,North,8,0.0,0.0,96,0.09,,,0.67,WeatherDisplay:10.36,2013-06-07 11:48:00,
2013-06-07 07:54:00,59.0,57.9,29.84,North,8,0.0,0.0,96,0.08,CLR,CLR,0.67,WeatherDisplay:10.36,2013-06-07 11:54:00,
2013-06-07 07:59:00,59.0,57.9,29.84,North,8,0.0,0.0,96,0.07,CLR,CLR,0.67,WeatherDisplay:10.36,2013-06-07 11:59:00,
2013-06-07 08:04:00,59.0,57.9,29.84,North,8,1.2,1.2,96,0.05,CLR,CLR,0.67,WeatherDisplay:10.36,2013-06-07 12:04:00,
2013-06-07 08:09:00,59.0,57.9,29.84,North,8,0.0,0.0,96,0.04,CLR,CLR,0.68,WeatherDisplay:10.36,2013-06-07 12:09:00,
2013-06-07 08:14:00,59.0,57.9,29.84,North,8,0.0,0.0,96,0.04,RA,RA,0.68,WeatherDisplay:10.36,2013-06-07 12:14:00,
2013-06-07 08:20:00,59.0,57.9,29.84,North,8,0.0,0.0,96,0.03,,,0.68,WeatherDisplay:10.36,2013-06-07 12:20:00,
2013-06-07 08:25:00,59.0,57.9,29.84,North,8,0.0,0.0,96,0.00,RA,RA,0.69,WeatherDisplay:10.36,2013-06-07 12:25:00,
2013-06-07 08:30:00,59.0,57.9,29.84,North,8,0.0,0.0,96,0.03,RA,RA,0.69,WeatherDisplay:10.36,2013-06-07 12:30:00,
2013-06-07 08:35:00,59.0,57.9,29.84,North,8,0.0,0.0,96,0.00,,,0.69,WeatherDisplay:10.36,2013-06-07 12:35:00,
2013-06-07 08:40:00,59.0,57.9,29.84,North,8,0.0,0.0,96,0.00,RA,RA,0.70,WeatherDisplay:10.36,2013-06-07 12:40:00,
2013-06-07 08:45:00,59.0,57.9,29.84,North,8,0.0,0.0,96,0.00,RA,RA,0.70,WeatherDisplay:10.36,2013-06-07 12:45:00,
2013-06-07 08:50:00,59.0,57.9,29.84,NNE,33,0.0,0.0,96,0.04,RA,RA,0.72,WeatherDisplay:10.36,2013-06-07 12:50:00,
2013-06-07 08:55:00,58.9,57.8,29.84,NNE,27,0.0,0.0,96,0.05,RA,RA,0.72,WeatherDisplay:10.36,2013-06-07 12:55:00,
2013-06-07 09:00:00,58.9,57.8,29.84,NNE,27,0.0,0.0,96,0.07,RA,RA,0.74,WeatherDisplay:10.36,2013-06-07 13:00:00,
2013-06-07 09:05:00,58.9,57.8,29.83,NNE,27,0.0,0.0,96,0.07,RA,RA,0.74,WeatherDisplay:10.36,2013-06-07 13:05:00,
2013-06-07 09:11:00,58.9,57.8,29.83,NNE,27,0.0,0.0,96,0.08,RA,RA,0.75,WeatherDisplay:10.36,2013-06-07 13:11:00,
2013-06-07 09:16:00,58.9,57.8,29.83,NW,316,3.5,0.0,96,0.08,RA,RA,0.76,WeatherDisplay:10.36,2013-06-07 13:16:00,
2013-06-07 09:22:00,58.9,57.8,29.83,NW,313,0.0,0.0,96,0.08,RA,RA,0.76,WeatherDisplay:10.36,2013-06-07 13:22:00,
2013-06-07 09:27:00,59.0,58.2,29.83,NW,313,0.0,0.0,97,0.07,,,0.76,WeatherDisplay:10.36,2013-06-07 13:27:00,
2013-06-07 09:32:00,59.0,58.2,29.83,NW,313,0.0,0.0,97,0.08,RA,RA,0.77,WeatherDisplay:10.36,2013-06-07 13:32:00,
2013-06-07 09:37:00,59.0,58.2,29.83,NW,314,0.0,0.0,97,0.07,RA,RA,0.77,WeatherDisplay:10.36,2013-06-07 13:37:00,
2013-06-07 09:42:00,59.2,58.3,29.83,NW,314,0.0,0.0,97,0.08,RA,RA,0.78,WeatherDisplay:10.36,2013-06-07 13:42:00,
2013-06-07 09:47:00,59.2,58.3,29.83,NW,314,0.0,0.0,97,0.07,RA,RA,0.78,WeatherDisplay:10.36,2013-06-07 13:47:00,
2013-06-07 09:53:00,59.3,58.4,29.83,NW,313,0.0,0.0,97,0.06,CLR,CLR,0.78,WeatherDisplay:10.36,2013-06-07 13:53:00,
2013-06-07 09:58:00,59.5,58.6,29.83,NW,314,0.0,0.0,97,0.05,CLR,CLR,0.78,WeatherDisplay:10.36,2013-06-07 13:58:00,
2013-06-07 10:03:00,59.6,58.7,29.83,NW,313,0.0,0.0,97,0.04,CLR,CLR,0.78,WeatherDisplay:10.36,2013-06-07 14:03:00,
2013-06-07 10:08:00,59.6,58.7,29.82,NW,313,0.0,0.0,97,0.04,RA,RA,0.79,WeatherDisplay:10.36,2013-06-07 14:08:00,
2013-06-07 10:13:00,59.8,58.9,29.83,NE,49,2.3,2.3,97,0.04,RA,RA,0.79,WeatherDisplay:10.36,2013-06-07 14:13:00,
2013-06-07 10:18:00,59.8,58.9,29.82,East,84,0.0,0.0,97,0.03,,,0.79,WeatherDisplay:10.36,2013-06-07 14:18:00,
2013-06-07 10:23:00,59.8,58.9,29.82,East,84,0.0,0.0,97,0.04,RA,RA,0.80,WeatherDisplay:10.36,2013-06-07 14:23:00,
2013-06-07 10:28:00,59.9,59.0,29.82,East,84,0.0,0.0,97,0.04,RA,RA,0.80,WeatherDisplay:10.36,2013-06-07 14:28:00,
2013-06-07 10:33:00,60.1,59.2,29.82,East,85,0.0,0.0,97,0.03,CLR,CLR,0.80,WeatherDisplay:10.36,2013-06-07 14:33:00,
2013-06-07 10:39:00,60.2,59.3,29.82,East,85,0.0,0.0,97,0.03,CLR,CLR,0.80,WeatherDisplay:10.36,2013-06-07 14:39:00,
2013-06-07 10:44:00,60.2,59.3,29.81,East,85,0.0,0.0,97,0.03,RA,RA,0.81,WeatherDisplay:10.36,2013-06-07 14:44:00,
2013-06-07 10:49:00,60.4,59.5,29.81,East,84,0.0,0.0,97,0.03,RA,RA,0.81,WeatherDisplay:10.36,2013-06-07 14:49:00,
2013-06-07 10:54:00,60.5,59.6,29.81,East,84,0.0,0.0,97,0.03,CLR,CLR,0.81,WeatherDisplay:10.36,2013-06-07 14:54:00,
2013-06-07 10:59:00,60.5,59.6,29.81,East,84,0.0,0.0,97,0.04,RA,RA,0.82,WeatherDisplay:10.36,2013-06-07 14:59:00,
2013-06-07 11:04:00,60.5,59.6,29.81,East,84,0.0,0.0,97,0.06,RA,RA,0.84,WeatherDisplay:10.36,2013-06-07 15:04:00,
2013-06-07 11:10:00,60.7,59.8,29.81,WNW,303,2.3,2.3,97,0.06,RA,RA,0.85,WeatherDisplay:10.36,2013-06-07 15:10:00,
2013-06-07 11:15:00,60.7,59.8,29.81,WNW,303,0.0,0.0,97,0.06,RA,RA,0.85,WeatherDisplay:10.36,2013-06-07 15:15:00,
2013-06-07 11:20:00,60.7,59.8,29.81,WNW,303,0.0,0.0,97,0.06,,,0.85,WeatherDisplay:10.36,2013-06-07 15:20:00,
2013-06-07 11:25:00,60.7,59.8,29.81,WNW,303,0.0,0.0,97,0.05,CLR,CLR,0.85,WeatherDisplay:10.36,2013-06-07 15:25:00,
2013-06-07 11:30:00,60.7,59.8,29.81,East,86,0.0,0.0,97,0.06,RA,RA,0.86,WeatherDisplay:10.36,2013-06-07 15:30:00,
2013-06-07 11:36:00,60.7,59.8,29.81,ENE,61,0.0,0.0,97,0.06,RA,RA,0.86,WeatherDisplay:10.36,2013-06-07 15:36:00,
2013-06-07 11:41:00,60.9,60.0,29.81,ENE,58,0.0,0.0,97,0.05,CLR,CLR,0.86,WeatherDisplay:10.36,2013-06-07 15:41:00,
2013-06-07 11:46:00,61.0,60.1,29.81,ENE,58,0.0,0.0,97,0.06,RA,RA,0.87,WeatherDisplay:10.36,2013-06-07 15:46:00,
2013-06-07 11:51:00,61.2,60.3,29.81,ENE,58,0.0,0.0,97,0.07,RA,RA,0.88,WeatherDisplay:10.36,2013-06-07 15:51:00,
2013-06-07 11:56:00,61.2,60.3,29.81,ENE,58,0.0,0.0,97,0.07,RA,RA,0.89,WeatherDisplay:10.36,2013-06-07 15:56:00,
2013-06-07 12:01:00,61.2,60.3,29.81,ENE,58,0.0,0.0,97,0.07,RA,RA,0.90,WeatherDisplay:10.36,2013-06-07 16:01:00,
2013-06-07 12:06:00,61.0,60.1,29.81,ENE,58,0.0,0.0,97,0.07,RA,RA,0.91,WeatherDisplay:10.36,2013-06-07 16:06:00,
2013-06-07 12:12:00,61.0,60.1,29.81,ENE,58,1.2,0.0,97,0.07,RA,RA,0.92,WeatherDisplay:10.36,2013-06-07 16:12:00,
2013-06-07 12:17:00,61.0,60.1,29.81,ENE,58,0.0,0.0,97,0.08,RA,RA,0.93,WeatherDisplay:10.36,2013-06-07 16:17:00,
2013-06-07 12:22:00,61.2,60.3,29.81,ENE,58,0.0,0.0,97,0.09,RA,RA,0.94,WeatherDisplay:10.36,2013-06-07 16:22:00,
2013-06-07 12:27:00,61.2,60.3,29.81,ENE,58,0.0,0.0,97,0.09,RA,RA,0.94,WeatherDisplay:10.36,2013-06-07 16:27:00,
2013-06-07 12:32:00,61.2,60.3,29.81,ENE,58,0.0,0.0,97,0.08,,,0.94,WeatherDisplay:10.36,2013-06-07 16:32:00,
2013-06-07 12:37:00,61.2,60.3,29.80,ENE,58,0.0,0.0,97,0.09,RA,RA,0.95,WeatherDisplay:10.36,2013-06-07 16:37:00,
2013-06-07 12:42:00,61.2,60.3,29.80,NNE,14,1.2,0.0,97,0.10,RA,RA,0.96,WeatherDisplay:10.36,2013-06-07 16:42:00,
2013-06-07 12:47:00,61.2,60.3,29.80,NNE,14,0.0,0.0,97,0.09,RA,RA,0.96,WeatherDisplay:10.36,2013-06-07 16:47:00,
2013-06-07 12:52:00,61.2,60.3,29.80,NNE,15,0.0,0.0,97,0.08,,,0.96,WeatherDisplay:10.36,2013-06-07 16:52:00,
2013-06-07 12:57:00,61.2,60.3,29.80,NNE,14,0.0,0.0,97,0.08,RA,RA,0.97,WeatherDisplay:10.36,2013-06-07 16:57:00,
2013-06-07 13:02:00,61.0,60.1,29.80,NNE,28,0.0,0.0,97,0.08,RA,RA,0.98,WeatherDisplay:10.36,2013-06-07 17:02:00,
2013-06-07 13:07:00,61.0,60.1,29.80,ENE,63,0.0,0.0,97,0.07,RA,RA,0.98,WeatherDisplay:10.36,2013-06-07 17:07:00,
2013-06-07 13:12:00,61.0,60.1,29.80,NNW,346,0.0,0.0,97,0.08,RA,RA,1.00,WeatherDisplay:10.36,2013-06-07 17:12:00,
2013-06-07 13:18:00,61.0,60.1,29.79,NNW,346,0.0,0.0,97,0.08,RA,RA,1.01,WeatherDisplay:10.36,2013-06-07 17:18:00,
2013-06-07 13:23:00,61.0,60.1,29.79,NNW,346,0.0,0.0,97,0.08,RA,RA,1.02,WeatherDisplay:10.36,2013-06-07 17:23:00,
2013-06-07 13:28:00,61.0,60.1,29.79,NNW,346,0.0,0.0,97,0.09,RA,RA,1.03,WeatherDisplay:10.36,2013-06-07 17:28:00,
2013-06-07 13:33:00,61.0,60.1,29.79,NNW,346,0.0,0.0,97,0.08,RA,RA,1.03,WeatherDisplay:10.36,2013-06-07 17:33:00,
2013-06-07 13:38:00,60.9,60.0,29.78,NNW,345,1.2,0.0,97,0.09,RA,RA,1.04,WeatherDisplay:10.36,2013-06-07 17:38:00,
2013-06-07 13:43:00,60.7,59.8,29.78,NNW,345,0.0,0.0,97,0.09,RA,RA,1.05,WeatherDisplay:10.36,2013-06-07 17:43:00,
2013-06-07 13:48:00,60.7,59.8,29.78,NNW,342,0.0,0.0,97,0.10,RA,RA,1.06,WeatherDisplay:10.36,2013-06-07 17:48:00,
2013-06-07 13:53:00,60.7,59.8,29.78,NW,307,0.0,1.2,97,0.09,RA,RA,1.06,WeatherDisplay:10.36,2013-06-07 17:53:00,
2013-06-07 13:59:00,60.7,59.8,29.78,NW,307,0.0,0.0,97,0.10,RA,RA,1.07,WeatherDisplay:10.36,2013-06-07 17:59:00,
2013-06-07 14:04:00,60.7,59.8,29.78,NW,307,0.0,0.4,97,0.10,RA,RA,1.08,WeatherDisplay:10.36,2013-06-07 18:04:00,
2013-06-07 14:09:00,60.7,59.8,29.78,NW,307,0.0,0.0,97,0.10,RA,RA,1.09,WeatherDisplay:10.36,2013-06-07 18:09:00,
2013-06-07 14:14:00,60.5,59.6,29.77,NW,307,0.0,0.0,97,0.10,RA,RA,1.10,WeatherDisplay:10.36,2013-06-07 18:14:00,
2013-06-07 14:19:00,60.5,59.6,29.77,NW,307,0.0,0.0,97,0.10,RA,RA,1.11,WeatherDisplay:10.36,2013-06-07 18:19:00,
2013-06-07 14:24:00,60.5,59.6,29.77,NW,307,0.0,0.0,97,0.09,RA,RA,1.12,WeatherDisplay:10.36,2013-06-07 18:24:00,
2013-06-07 14:29:00,60.5,59.6,29.77,WNW,295,0.0,0.0,97,0.09,RA,RA,1.12,WeatherDisplay:10.36,2013-06-07 18:29:00,
2013-06-07 14:35:00,60.7,59.8,29.77,WNW,297,0.0,1.0,97,0.01,RA,RA,1.13,WeatherDisplay:10.36,2013-06-07 18:35:00,
2013-06-07 14:40:00,60.7,59.8,29.77,WNW,295,0.0,0.0,97,0.09,RA,RA,1.13,WeatherDisplay:10.36,2013-06-07 18:40:00,
2013-06-07 14:46:00,60.7,59.8,29.77,WNW,295,0.0,0.0,97,0.09,RA,RA,1.14,WeatherDisplay:10.36,2013-06-07 18:46:00,
2013-06-07 14:51:00,60.5,59.6,29.76,WNW,295,0.0,0.0,97,0.08,RA,RA,1.14,WeatherDisplay:10.36,2013-06-07 18:51:00,
2013-06-07 14:56:00,60.5,59.6,29.76,WNW,295,0.0,0.0,97,0.08,RA,RA,1.15,WeatherDisplay:10.36,2013-06-07 18:56:00,
2013-06-07 15:01:00,60.5,59.6,29.76,WNW,295,0.0,0.0,97,0.08,RA,RA,1.16,WeatherDisplay:10.36,2013-06-07 19:01:00,
2013-06-07 15:06:00,60.5,59.6,29.76,WNW,295,0.0,0.0,97,0.07,RA,RA,1.16,WeatherDisplay:10.36,2013-06-07 19:06:00,
2013-06-07 15:11:00,60.5,59.6,29.75,WNW,295,0.0,0.0,97,0.07,RA,RA,1.17,WeatherDisplay:10.36,2013-06-07 19:11:00,
2013-06-07 15:17:00,60.4,59.5,29.75,WNW,295,0.0,0.0,97,0.07,RA,RA,1.18,WeatherDisplay:10.36,2013-06-07 19:17:00,
2013-06-07 15:22:00,60.4,59.5,29.75,WNW,295,0.0,0.0,97,0.07,RA,RA,1.18,WeatherDisplay:10.36,2013-06-07 19:22:00,
2013-06-07 15:27:00,60.4,59.5,29.75,WNW,295,0.0,0.0,97,0.07,RA,RA,1.19,WeatherDisplay:10.36,2013-06-07 19:27:00,
2013-06-07 15:33:00,60.4,59.5,29.75,WNW,295,0.0,0.0,97,0.08,RA,RA,1.20,WeatherDisplay:10.36,2013-06-07 19:33:00,
2013-06-07 15:38:00,60.4,59.5,29.75,WNW,295,0.0,0.0,97,0.08,RA,RA,1.21,WeatherDisplay:10.36,2013-06-07 19:38:00,
2013-06-07 15:44:00,60.4,59.5,29.74,WNW,295,0.0,0.0,97,0.07,RA,RA,1.21,WeatherDisplay:10.36,2013-06-07 19:44:00,
2013-06-07 15:49:00,60.4,59.5,29.74,WNW,295,0.0,0.0,97,0.08,RA,RA,1.22,WeatherDisplay:10.36,2013-06-07 19:49:00,
2013-06-07 15:54:00,60.2,59.3,29.74,WNW,295,0.0,0.0,97,0.08,RA,RA,1.23,WeatherDisplay:10.36,2013-06-07 19:54:00,
2013-06-07 15:59:00,60.2,59.3,29.74,WNW,295,0.0,0.0,97,0.09,RA,RA,1.24,WeatherDisplay:10.36,2013-06-07 19:59:00,
2013-06-07 16:04:00,60.2,59.3,29.74,WNW,295,0.0,0.0,97,0.08,RA,RA,1.24,WeatherDisplay:10.36,2013-06-07 20:04:00,
2013-06-07 16:09:00,60.1,59.2,29.72,WNW,295,0.0,0.0,97,0.08,RA,RA,1.25,WeatherDisplay:10.36,2013-06-07 20:09:00,
2013-06-07 16:14:00,60.1,59.2,29.72,WNW,295,0.0,0.0,97,0.09,RA,RA,1.26,WeatherDisplay:10.36,2013-06-07 20:14:00,
2013-06-07 16:19:00,60.2,59.3,29.73,WNW,295,0.0,0.0,97,0.09,RA,RA,1.27,WeatherDisplay:10.36,2013-06-07 20:19:00,
2013-06-07 16:24:00,60.2,59.3,29.72,WNW,295,0.0,0.0,97,0.09,RA,RA,1.27,WeatherDisplay:10.36,2013-06-07 20:24:00,
2013-06-07 16:29:00,60.1,59.2,29.71,WNW,295,0.0,0.0,97,0.09,RA,RA,1.28,WeatherDisplay:10.36,2013-06-07 20:29:00,
2013-06-07 16:34:00,60.1,59.2,29.71,WNW,295,0.0,0.0,97,0.09,RA,RA,1.29,WeatherDisplay:10.36,2013-06-07 20:34:00,
2013-06-07 16:39:00,60.1,59.2,29.71,WNW,295,0.0,0.0,97,0.08,RA,RA,1.30,WeatherDisplay:10.36,2013-06-07 20:39:00,
2013-06-07 16:44:00,60.1,59.2,29.70,WNW,295,0.0,0.0,97,0.09,RA,RA,1.30,WeatherDisplay:10.36,2013-06-07 20:44:00,
2013-06-07 16:49:00,60.1,59.2,29.70,WNW,295,0.0,0.0,97,0.09,RA,RA,1.31,WeatherDisplay:10.36,2013-06-07 20:49:00,
2013-06-07 16:55:00,60.1,59.2,29.70,WNW,295,0.0,0.0,97,0.09,RA,RA,1.32,WeatherDisplay:10.36,2013-06-07 20:55:00,
2013-06-07 17:00:00,60.1,59.2,29.70,WNW,295,0.0,0.0,97,0.00,RA,RA,1.32,WeatherDisplay:10.36,2013-06-07 21:00:00,
2013-06-07 17:05:00,60.1,59.2,29.69,WNW,295,0.0,0.0,97,0.09,RA,RA,1.33,WeatherDisplay:10.36,2013-06-07 21:05:00,
2013-06-07 17:10:00,60.1,59.2,29.69,WNW,295,0.0,0.0,97,0.08,RA,RA,1.33,WeatherDisplay:10.36,2013-06-07 21:10:00,
2013-06-07 17:15:00,60.2,59.3,29.69,WNW,295,0.0,0.0,97,0.07,,,1.34,WeatherDisplay:10.36,2013-06-07 21:15:00,
2013-06-07 17:21:00,60.2,59.3,29.69,WNW,295,1.2,0.0,97,0.07,RA,RA,1.34,WeatherDisplay:10.36,2013-06-07 21:21:00,
2013-06-07 17:26:00,60.2,59.3,29.69,WNW,295,0.0,0.0,97,0.07,RA,RA,1.35,WeatherDisplay:10.36,2013-06-07 21:26:00,
2013-06-07 17:31:00,60.2,59.3,29.69,WNW,295,0.0,0.0,97,0.07,RA,RA,1.35,WeatherDisplay:10.36,2013-06-07 21:31:00,
2013-06-07 17:36:00,60.2,59.3,29.70,WNW,295,0.0,0.0,97,0.07,RA,RA,1.36,WeatherDisplay:10.36,2013-06-07 21:36:00,
2013-06-07 17:42:00,60.2,59.3,29.70,WNW,295,0.0,0.0,97,0.07,RA,RA,1.37,WeatherDisplay:10.36,2013-06-07 21:42:00,
2013-06-07 17:48:00,60.2,59.3,29.69,WNW,295,0.0,0.0,97,0.09,RA,RA,1.40,WeatherDisplay:10.36,2013-06-07 21:48:00,
2013-06-07 17:53:00,60.2,59.3,29.68,WNW,295,0.0,0.0,97,0.11,RA,RA,1.42,WeatherDisplay:10.36,2013-06-07 21:53:00,
2013-06-07 17:59:00,60.2,59.3,29.68,WNW,295,0.0,0.0,97,0.11,RA,RA,1.43,WeatherDisplay:10.36,2013-06-07 21:59:00,
2013-06-07 18:04:00,60.2,59.3,29.67,WNW,295,0.0,0.0,97,0.10,RA,RA,1.43,WeatherDisplay:10.36,2013-06-07 22:04:00,
2013-06-07 18:09:00,60.4,59.5,29.68,WNW,295,0.0,0.0,97,0.10,CLR,CLR,1.43,WeatherDisplay:10.36,2013-06-07 22:09:00,
2013-06-07 18:15:00,60.4,59.5,29.67,WNW,295,0.0,0.0,97,0.00,RA,RA,1.44,WeatherDisplay:10.36,2013-06-07 22:15:00,
2013-06-07 18:20:00,60.4,59.5,29.67,WNW,295,0.0,0.0,97,0.10,RA,RA,1.44,WeatherDisplay:10.36,2013-06-07 22:20:00,
2013-06-07 18:25:00,60.2,59.3,29.67,WNW,295,1.2,0.0,97,0.09,CLR,CLR,1.44,WeatherDisplay:10.36,2013-06-07 22:25:00,
2013-06-07 18:31:00,60.2,59.3,29.67,WNW,295,0.0,0.0,97,0.09,CLR,CLR,1.44,WeatherDisplay:10.36,2013-06-07 22:31:00,
2013-06-07 18:36:00,60.2,59.3,29.68,WNW,295,0.0,0.0,97,0.10,RA,RA,1.45,WeatherDisplay:10.36,2013-06-07 22:36:00,
2013-06-07 18:41:00,60.2,59.3,29.68,WNW,295,0.0,0.0,97,0.09,RA,RA,1.46,WeatherDisplay:10.36,2013-06-07 22:41:00,
2013-06-07 18:46:00,60.2,59.3,29.69,WNW,295,0.0,0.0,97,0.08,RA,RA,1.47,WeatherDisplay:10.36,2013-06-07 22:46:00,
2013-06-07 18:52:00,60.1,59.2,29.69,WNW,295,0.0,0.0,97,0.07,RA,RA,1.49,WeatherDisplay:10.36,2013-06-07 22:52:00,
2013-06-07 18:57:00,60.1,59.2,29.69,WNW,295,0.0,0.0,97,0.07,RA,RA,1.51,WeatherDisplay:10.36,2013-06-07 22:57:00,
2013-06-07 19:02:00,60.2,59.6,29.69,WNW,295,0.0,0.0,98,0.10,RA,RA,1.53,WeatherDisplay:10.36,2013-06-07 23:02:00,
2013-06-07 19:07:00,60.1,59.2,29.68,WNW,295,0.0,0.0,97,0.12,RA,RA,1.55,WeatherDisplay:10.36,2013-06-07 23:07:00,
2013-06-07 19:12:00,60.1,59.2,29.67,WNW,295,0.0,0.0,97,0.14,RA,RA,1.57,WeatherDisplay:10.36,2013-06-07 23:12:00,
2013-06-07 19:17:00,60.1,59.5,29.67,WNW,295,0.0,0.0,98,0.14,RA,RA,1.58,WeatherDisplay:10.36,2013-06-07 23:17:00,
2013-06-07 19:23:00,60.1,59.5,29.67,WNW,295,0.0,0.0,98,0.15,RA,RA,1.59,WeatherDisplay:10.36,2013-06-07 23:23:00,
2013-06-07 19:28:00,60.2,59.6,29.67,WNW,295,0.0,0.0,98,0.15,RA,RA,1.59,WeatherDisplay:10.36,2013-06-07 23:28:00,
2013-06-07 19:34:00,60.2,59.6,29.66,WNW,295,0.0,0.0,98,0.15,RA,RA,1.60,WeatherDisplay:10.36,2013-06-07 23:34:00,
2013-06-07 19:39:00,60.2,59.6,29.66,WNW,295,1.2,0.0,98,0.15,RA,RA,1.61,WeatherDisplay:10.36,2013-06-07 23:39:00,
2013-06-07 19:44:00,60.4,59.8,29.66,WNW,295,1.2,0.0,98,0.15,RA,RA,1.62,WeatherDisplay:10.36,2013-06-07 23:44:00,
2013-06-07 19:49:00,60.4,59.8,29.67,WNW,295,0.0,0.0,98,0.15,RA,RA,1.63,WeatherDisplay:10.36,2013-06-07 23:49:00,
2013-06-07 19:54:00,60.4,59.8,29.66,WNW,295,2.0,2.0,98,0.15,RA,RA,1.64,WeatherDisplay:10.36,2013-06-07 23:54:00,
2013-06-07 20:00:00,60.4,59.8,29.65,WNW,295,0.0,0.0,98,0.12,RA,RA,1.64,WeatherDisplay:10.36,2013-06-08 00:00:00,
2013-06-07 20:06:00,60.4,59.8,29.66,WNW,295,0.0,0.0,98,0.11,RA,RA,1.65,WeatherDisplay:10.36,2013-06-08 00:06:00,
2013-06-07 20:11:00,60.4,59.8,29.66,WNW,295,0.0,0.0,98,0.09,RA,RA,1.65,WeatherDisplay:10.36,2013-06-08 00:11:00,
2013-06-07 20:17:00,60.2,59.6,29.66,WNW,295,0.0,0.0,98,0.07,CLR,CLR,1.65,WeatherDisplay:10.36,2013-06-08 00:17:00,
2013-06-07 20:22:00,60.2,59.6,29.66,WNW,295,0.0,0.0,98,0.08,RA,RA,1.66,WeatherDisplay:10.36,2013-06-08 00:22:00,
2013-06-07 20:28:00,60.2,59.6,29.66,WNW,295,0.0,0.0,98,0.07,RA,RA,1.66,WeatherDisplay:10.36,2013-06-08 00:28:00,
2013-06-07 20:33:00,60.2,59.6,29.66,WNW,295,0.0,0.0,98,0.08,RA,RA,1.68,WeatherDisplay:10.36,2013-06-08 00:33:00,
2013-06-07 20:38:00,60.2,59.6,29.64,WNW,295,0.0,0.0,98,0.09,RA,RA,1.69,WeatherDisplay:10.36,2013-06-08 00:38:00,
2013-06-07 20:43:00,60.2,59.6,29.66,WNW,295,0.0,0.0,98,0.08,RA,RA,1.70,WeatherDisplay:10.36,2013-06-08 00:43:00,
2013-06-07 20:48:00,60.2,59.6,29.66,WNW,295,0.0,0.0,98,0.09,RA,RA,1.72,WeatherDisplay:10.36,2013-06-08 00:48:00,
2013-06-07 20:54:00,60.2,59.6,29.64,WNW,295,0.0,0.0,98,0.09,RA,RA,1.73,WeatherDisplay:10.36,2013-06-08 00:54:00,
2013-06-07 20:59:00,60.2,59.6,29.65,WNW,295,0.0,0.0,98,0.10,RA,RA,1.74,WeatherDisplay:10.36,2013-06-08 00:59:00,
2013-06-07 21:04:00,60.2,59.6,29.64,WNW,295,0.0,0.0,98,0.09,RA,RA,1.74,WeatherDisplay:10.36,2013-06-08 01:04:00,
2013-06-07 21:09:00,60.2,59.6,29.64,WNW,295,0.0,0.0,98,0.10,RA,RA,1.75,WeatherDisplay:10.36,2013-06-08 01:09:00,
2013-06-07 21:14:00,60.2,59.6,29.64,WNW,295,0.0,0.0,98,0.12,RA,RA,1.77,WeatherDisplay:10.36,2013-06-08 01:14:00,
2013-06-07 21:20:00,60.2,59.6,29.64,WNW,295,0.0,0.0,98,0.13,RA,RA,1.79,WeatherDisplay:10.36,2013-06-08 01:20:00,
2013-06-07 21:25:00,60.2,59.6,29.64,WNW,295,0.0,0.0,98,0.14,RA,RA,1.80,WeatherDisplay:10.36,2013-06-08 01:25:00,
2013-06-07 21:30:00,60.2,59.6,29.64,WNW,295,0.0,0.0,98,0.17,RA,RA,1.83,WeatherDisplay:10.36,2013-06-08 01:30:00,
2013-06-07 21:36:00,60.2,59.6,29.64,WNW,295,0.0,0.0,98,0.15,RA,RA,1.84,WeatherDisplay:10.36,2013-06-08 01:36:00,
2013-06-07 21:42:00,60.1,59.5,29.64,WNW,295,1.0,1.0,98,0.19,RA,RA,1.89,WeatherDisplay:10.36,2013-06-08 01:42:00,
2013-06-07 21:48:00,59.9,59.3,29.63,WNW,295,0.0,0.1,98,0.18,RA,RA,1.91,WeatherDisplay:10.36,2013-06-08 01:48:00,
2013-06-07 21:54:00,59.9,59.3,29.61,WNW,295,0.0,0.0,98,0.18,RA,RA,1.91,WeatherDisplay:10.36,2013-06-08 01:54:00,
2013-06-07 22:00:00,59.8,59.2,29.62,WNW,295,0.0,0.0,98,0.00,RA,RA,1.92,WeatherDisplay:10.36,2013-06-08 02:00:00,
2013-06-07 22:05:00,59.8,59.2,29.63,WNW,295,0.0,0.0,98,0.01,RA,RA,1.93,WeatherDisplay:10.36,2013-06-08 02:05:00,
2013-06-07 22:10:00,59.6,59.0,29.63,WNW,295,0.0,0.0,98,0.00,RA,RA,1.93,WeatherDisplay:10.36,2013-06-08 02:10:00,
2013-06-07 22:15:00,59.6,59.0,29.63,WNW,295,1.2,0.0,98,0.19,RA,RA,1.96,WeatherDisplay:10.36,2013-06-08 02:15:00,
2013-06-07 22:20:00,59.6,59.0,29.63,WNW,295,0.0,0.0,98,0.19,RA,RA,1.98,WeatherDisplay:10.36,2013-06-08 02:20:00,
2013-06-07 22:25:00,59.5,58.9,29.63,WNW,295,0.0,0.0,98,0.21,RA,RA,2.01,WeatherDisplay:10.36,2013-06-08 02:25:00,
2013-06-07 22:31:00,59.5,58.9,29.62,WNW,295,0.0,0.0,98,0.21,RA,RA,2.04,WeatherDisplay:10.36,2013-06-08 02:31:00,
2013-06-07 22:36:00,59.3,58.7,29.62,WNW,295,0.0,0.0,98,0.21,RA,RA,2.06,WeatherDisplay:10.36,2013-06-08 02:36:00,
2013-06-07 22:41:00,59.3,58.7,29.61,NW,323,1.0,1.0,98,0.18,RA,RA,2.06,WeatherDisplay:10.36,2013-06-08 02:41:00,
2013-06-07 22:47:00,59.3,58.7,29.61,NW,323,0.0,0.0,98,0.17,RA,RA,2.07,WeatherDisplay:10.36,2013-06-08 02:47:00,
2013-06-07 22:52:00,59.3,58.7,29.61,NW,323,0.0,0.0,98,0.16,RA,RA,2.07,WeatherDisplay:10.36,2013-06-08 02:52:00,
2013-06-07 22:57:00,59.2,58.6,29.61,NW,323,1.2,0.0,98,0.16,CLR,CLR,2.07,WeatherDisplay:10.36,2013-06-08 02:57:00,
2013-06-07 23:02:00,59.2,58.6,29.60,NW,323,0.0,0.0,98,0.16,RA,RA,2.08,WeatherDisplay:10.36,2013-06-08 03:02:00,
2013-06-07 23:07:00,59.0,58.4,29.60,NW,323,0.0,0.1,98,0.15,RA,RA,2.08,WeatherDisplay:10.36,2013-06-08 03:07:00,
2013-06-07 23:13:00,59.0,58.4,29.60,NW,323,0.0,0.0,98,0.14,CLR,CLR,2.08,WeatherDisplay:10.36,2013-06-08 03:13:00,
2013-06-07 23:18:00,59.0,58.4,29.60,NW,323,0.0,0.0,98,0.11,CLR,CLR,2.08,WeatherDisplay:10.36,2013-06-08 03:18:00,
2013-06-07 23:23:00,58.9,58.3,29.59,NW,323,0.0,0.8,98,0.08,CLR,CLR,2.08,WeatherDisplay:10.36,2013-06-08 03:23:00,
2013-06-07 23:28:00,58.9,58.3,29.59,NW,323,1.2,1.2,98,0.05,CLR,CLR,2.08,WeatherDisplay:10.36,2013-06-08 03:28:00,
2013-06-07 23:34:00,58.7,58.1,29.58,NW,323,0.0,0.0,98,0.03,CLR,CLR,2.08,WeatherDisplay:10.36,2013-06-08 03:34:00,
2013-06-07 23:39:00,58.7,58.1,29.58,NW,323,0.0,0.0,98,0.02,CLR,CLR,2.08,WeatherDisplay:10.36,2013-06-08 03:39:00,
2013-06-07 23:44:00,58.6,58.0,29.58,NW,323,0.0,0.0,98,0.04,RA,RA,2.10,WeatherDisplay:10.36,2013-06-08 03:44:00,
2013-06-07 23:50:00,58.6,58.0,29.58,NW,322,0.0,2.0,98,0.00,RA,RA,2.10,WeatherDisplay:10.36,2013-06-08 03:50:00,
2013-06-07 23:55:00,58.6,58.0,29.57,NW,321,0.0,1.0,98,0.00,,,2.10,WeatherDisplay:10.36,2013-06-08 03:55:00,